West Texas City, Texas
Current Conditions -  °F | °C
As of 4:52 AM on Wednesday 22 Oct 2014 (Local Time) from KGLS Reporting Station
Clear Clear  
Wind Chill: 70°   Ceiling: Unl
Heat Index: 70°   Visibility: 8mi
Dew Point: 67°   Wind: 9mph
Humidity: 90%   Direction: 30°NNE
Pressure: 30.02"   Gusts: NA
Location:  29.4192°N, 94.9833°W
Report Text: KGLS 220952Z AUTO 03008KT 8SM CLR 21/19 A3002 RMK AO2 SLP164 T02110194
Loading
Personal Weather Stations






























Interactive Weather Map
Tropical Storm Tracking
New forecast layout! Learn more

10-Day Weather Forecast

Advertisements
Track Severe Weather on mobile